Main page
METAR-TAF:

METAR-TAF

Airports :

Falconara Airport

Ancona, Italy

latitude: 43-37N, longitude: 013-22E, elevation: 12 m

Current weather observation

The report was made 1 hour and 1 minutes ago, at 12:50 UTC
Wind 5 kt from the South/Southwest, varying between South and Southwest
Temperature 15°C
Humidity 44%
Pressure 1003 hPa
Visibility 10 km or more
no clouds below 1500 m and no cumulonimbus

METAR: LIPY 141250Z 21005KT 170V230 CAVOK 15/03 Q1003

Time: 14:51 (13:51 UTC)

Forecast

The report was made 2 hours and 51 minutes ago, at 11:00 UTC
Forecast valid from 14 at 12 UTC to 15 at 12 UTC
Wind 8 kt from the West/Southwest
Visibility 10 km or more
no clouds below 1500 m and no cumulonimbus

TAF: LIPY 141100Z 1412/1512 24008KT CAVOK

Weather observations and forecasts of more than 4000 airports (METAR and TAF reports).

The available stations are represented by yellow and red dots on the map.

Hover mouse over dot to see the name of the station.

Then click to see weather observations and forecasts.

To change the map : click on the green buttons with a black cross to zoom in, on the green button with a dash to zoom out, or on the green arrows for adjacent maps.


METAR-TAF: